sensor_id;sensor_type;location;lat;lon;timestamp;pressure;altitude;pressure_sealevel;temperature;humidity
56198;BME280;42700;42.524;12.052;2023-05-01T00:00:07;103794.56;;;17.40;100.00
56198;BME280;42700;42.524;12.052;2023-05-01T00:02:33;103168.56;;;17.20;100.00
56198;BME280;42700;42.524;12.052;2023-05-01T00:04:58;103456.53;;;17.28;100.00
56198;BME280;42700;42.524;12.052;2023-05-01T00:07:24;103490.50;;;17.29;100.00
56198;BME280;42700;42.524;12.052;2023-05-01T00:09:50;103871.59;;;17.41;100.00
56198;BME280;42700;42.524;12.052;2023-05-01T00:12:16;103961.03;;;17.45;100.00
56198;BME280;42700;42.524;12.052;2023-05-01T00:14:41;103805.31;;;17.40;100.00
56198;BME280;42700;42.524;12.052;2023-05-01T00:17:07;103651.47;;;17.35;100.00
56198;BME280;42700;42.524;12.052;2023-05-01T00:19:32;103493.97;;;17.31;100.00
56198;BME280;42700;42.524;12.052;2023-05-01T00:21:58;103481.50;;;17.30;100.00
56198;BME280;42700;42.524;12.052;2023-05-01T00:24:24;103493.13;;;17.30;100.00
56198;BME280;42700;42.524;12.052;2023-05-01T00:26:49;103544.09;;;17.32;100.00
56198;BME280;42700;42.524;12.052;2023-05-01T00:29:15;103570.97;;;17.32;100.00
56198;BME280;42700;42.524;12.052;2023-05-01T00:31:41;103571.91;;;17.31;100.00
56198;BME280;42700;42.524;12.052;2023-05-01T00:34:07;103614.84;;;17.32;100.00
56198;BME280;42700;42.524;12.052;2023-05-01T00:36:33;103681.97;;;17.34;100.00
56198;BME280;42700;42.524;12.052;2023-05-01T00:38:59;103587.25;;;17.29;100.00
56198;BME280;42700;42.524;12.052;2023-05-01T00:41:24;103721.47;;;17.32;100.00
56198;BME280;42700;42.524;12.052;2023-05-01T00:43:50;103741.22;;;17.31;100.00
56198;BME280;42700;42.524;12.052;2023-05-01T00:46:15;103432.66;;;17.22;100.00
56198;BME280;42700;42.524;12.052;2023-05-01T00:48:42;103561.50;;;17.25;100.00
56198;BME280;42700;42.524;12.052;2023-05-01T00:51:08;103469.50;;;17.20;100.00
56198;BME280;42700;42.524;12.052;2023-05-01T00:53:34;103172.72;;;17.09;100.00
56198;BME280;42700;42.524;12.052;2023-05-01T00:55:59;103509.00;;;17.18;100.00
56198;BME280;42700;42.524;12.052;2023-05-01T00:58:25;103686.19;;;17.21;100.00
56198;BME280;42700;42.524;12.052;2023-05-01T01:00:51;103786.41;;;17.23;100.00
56198;BME280;42700;42.524;12.052;2023-05-01T01:03:17;103763.19;;;17.22;100.00
56198;BME280;42700;42.524;12.052;2023-05-01T01:05:49;103766.72;;;17.22;100.00
56198;BME280;42700;42.524;12.052;2023-05-01T01:08:22;103693.47;;;17.19;100.00
56198;BME280;42700;42.524;12.052;2023-05-01T01:11:09;103670.22;;;17.18;100.00
56198;BME280;42700;42.524;12.052;2023-05-01T01:13:42;103858.09;;;17.22;100.00
56198;BME280;42700;42.524;12.052;2023-05-01T01:18:55;103792.03;;;17.18;100.00
56198;BME280;42700;42.524;12.052;2023-05-01T01:21:34;103657.88;;;17.13;100.00
56198;BME280;42700;42.524;12.052;2023-05-01T01:27:09;103675.72;;;17.14;100.00
56198;BME280;42700;42.524;12.052;2023-05-01T01:32:33;103324.19;;;17.07;100.00
56198;BME280;42700;42.524;12.052;2023-05-01T01:35:18;103101.66;;;16.99;100.00
56198;BME280;42700;42.524;12.052;2023-05-01T01:37:54;103055.22;;;16.97;100.00
56198;BME280;42700;42.524;12.052;2023-05-01T01:40:23;103060.59;;;16.97;100.00
56198;BME280;42700;42.524;12.052;2023-05-01T01:43:04;103132.94;;;17.00;100.00
56198;BME280;42700;42.524;12.052;2023-05-01T01:45:35;103119.53;;;17.00;100.00
56198;BME280;42700;42.524;12.052;2023-05-01T01:48:01;103187.44;;;17.02;100.00
56198;BME280;42700;42.524;12.052;2023-05-01T01:50:27;103269.78;;;17.03;100.00
56198;BME280;42700;42.524;12.052;2023-05-01T01:52:53;103309.09;;;17.04;100.00
56198;BME280;42700;42.524;12.052;2023-05-01T01:55:24;103345.75;;;17.05;100.00
56198;BME280;42700;42.524;12.052;2023-05-01T01:57:52;103429.91;;;17.06;100.00
56198;BME280;42700;42.524;12.052;2023-05-01T02:00:18;103433.47;;;17.06;100.00
56198;BME280;42700;42.524;12.052;2023-05-01T02:02:45;103345.91;;;17.02;100.00
56198;BME280;42700;42.524;12.052;2023-05-01T02:05:12;103470.28;;;17.04;100.00
56198;BME280;42700;42.524;12.052;2023-05-01T02:07:39;104006.03;;;17.19;100.00
56198;BME280;42700;42.524;12.052;2023-05-01T02:10:07;103845.91;;;17.15;100.00
56198;BME280;42700;42.524;12.052;2023-05-01T02:12:33;103901.44;;;17.14;100.00
56198;BME280;42700;42.524;12.052;2023-05-01T02:15:00;103942.56;;;17.17;100.00
56198;BME280;42700;42.524;12.052;2023-05-01T02:17:26;103705.75;;;17.05;100.00
56198;BME280;42700;42.524;12.052;2023-05-01T02:19:52;103516.41;;;16.95;100.00
56198;BME280;42700;42.524;12.052;2023-05-01T02:22:20;103628.13;;;16.99;100.00
56198;BME280;42700;42.524;12.052;2023-05-01T02:24:46;103349.28;;;16.90;100.00
56198;BME280;42700;42.524;12.052;2023-05-01T02:27:19;103547.69;;;16.96;100.00
56198;BME280;42700;42.524;12.052;2023-05-01T02:29:45;102970.34;;;16.78;100.00
56198;BME280;42700;42.524;12.052;2023-05-01T02:32:11;103340.31;;;16.89;100.00
56198;BME280;42700;42.524;12.052;2023-05-01T02:34:36;103088.31;;;16.82;100.00
56198;BME280;42700;42.524;12.052;2023-05-01T02:37:05;103166.00;;;16.85;100.00
56198;BME280;42700;42.524;12.052;2023-05-01T02:39:31;102950.56;;;16.79;100.00
56198;BME280;42700;42.524;12.052;2023-05-01T02:41:58;103172.97;;;16.89;100.00
56198;BME280;42700;42.524;12.052;2023-05-01T02:44:27;103218.44;;;16.92;100.00
56198;BME280;42700;42.524;12.052;2023-05-01T02:46:54;102941.25;;;16.87;100.00
56198;BME280;42700;42.524;12.052;2023-05-01T02:49:21;102958.91;;;16.91;100.00
56198;BME280;42700;42.524;12.052;2023-05-01T02:51:47;102879.31;;;16.90;100.00
56198;BME280;42700;42.524;12.052;2023-05-01T02:54:13;102986.34;;;16.96;100.00
56198;BME280;42700;42.524;12.052;2023-05-01T02:56:40;102403.75;;;16.80;100.00
56198;BME280;42700;42.524;12.052;2023-05-01T02:59:06;102962.75;;;17.01;100.00
56198;BME280;42700;42.524;12.052;2023-05-01T03:01:31;102192.41;;;16.82;100.00
56198;BME280;42700;42.524;12.052;2023-05-01T03:03:57;102577.19;;;16.97;100.00
56198;BME280;42700;42.524;12.052;2023-05-01T03:06:23;102302.75;;;16.92;100.00
56198;BME280;42700;42.524;12.052;2023-05-01T03:08:48;102135.53;;;16.90;100.00
56198;BME280;42700;42.524;12.052;2023-05-01T03:11:14;102487.19;;;17.04;100.00
56198;BME280;42700;42.524;12.052;2023-05-01T03:13:41;101693.00;;;16.84;100.00
56198;BME280;42700;42.524;12.052;2023-05-01T03:16:07;102192.00;;;17.01;100.00
56198;BME280;42700;42.524;12.052;2023-05-01T03:18:33;102091.69;;;17.02;100.00
56198;BME280;42700;42.524;12.052;2023-05-01T03:20:58;101784.34;;;16.95;100.00
56198;BME280;42700;42.524;12.052;2023-05-01T03:23:24;101264.78;;;16.79;100.00
56198;BME280;42700;42.524;12.052;2023-05-01T03:25:49;101792.16;;;16.98;100.00
56198;BME280;42700;42.524;12.052;2023-05-01T03:28:15;101671.56;;;16.95;100.00
56198;BME280;42700;42.524;12.052;2023-05-01T03:30:42;101614.44;;;16.93;100.00
56198;BME280;42700;42.524;12.052;2023-05-01T03:33:08;100740.19;;;16.64;100.00
56198;BME280;42700;42.524;12.052;2023-05-01T03:35:33;101260.84;;;16.84;100.00
56198;BME280;42700;42.524;12.052;2023-05-01T03:37:59;100948.06;;;16.70;100.00
56198;BME280;42700;42.524;12.052;2023-05-01T03:40:24;100820.41;;;16.67;100.00
56198;BME280;42700;42.524;12.052;2023-05-01T03:42:50;101313.69;;;16.83;100.00
56198;BME280;42700;42.524;12.052;2023-05-01T03:45:15;101585.66;;;16.95;100.00
56198;BME280;42700;42.524;12.052;2023-05-01T03:47:41;101523.16;;;16.93;100.00
56198;BME280;42700;42.524;12.052;2023-05-01T03:50:07;101390.91;;;16.91;100.00
56198;BME280;42700;42.524;12.052;2023-05-01T03:52:33;101483.66;;;16.95;100.00
56198;BME280;42700;42.524;12.052;2023-05-01T03:54:58;100689.66;;;16.69;100.00
56198;BME280;42700;42.524;12.052;2023-05-01T03:57:24;101399.97;;;16.78;100.00
56198;BME280;42700;42.524;12.052;2023-05-01T03:59:51;101638.13;;;16.88;100.00
56198;BME280;42700;42.524;12.052;2023-05-01T04:02:17;101000.88;;;16.69;100.00
56198;BME280;42700;42.524;12.052;2023-05-01T04:04:43;100339.63;;;16.46;100.00
56198;BME280;42700;42.524;12.052;2023-05-01T04:07:08;101092.38;;;16.66;100.00
56198;BME280;42700;42.524;12.052;2023-05-01T04:09:34;101418.75;;;16.78;100.00
56198;BME280;42700;42.524;12.052;2023-05-01T04:12:00;101015.31;;;16.68;100.00
56198;BME280;42700;42.524;12.052;2023-05-01T04:14:26;101203.34;;;16.76;100.00
56198;BME280;42700;42.524;12.052;2023-05-01T04:16:52;100696.59;;;16.62;100.00
56198;BME280;42700;42.524;12.052;2023-05-01T04:19:17;101378.25;;;16.82;100.00
56198;BME280;42700;42.524;12.052;2023-05-01T04:21:43;100171.34;;;16.48;100.00
56198;BME280;42700;42.524;12.052;2023-05-01T04:24:08;100475.34;;;16.56;100.00
56198;BME280;42700;42.524;12.052;2023-05-01T04:26:34;100052.00;;;16.44;100.00
56198;BME280;42700;42.524;12.052;2023-05-01T04:29:00;99985.94;;;16.42;100.00
56198;BME280;42700;42.524;12.052;2023-05-01T04:31:25;100255.16;;;16.50;100.00
56198;BME280;42700;42.524;12.052;2023-05-01T04:33:51;100689.09;;;16.66;100.00
56198;BME280;42700;42.524;12.052;2023-05-01T04:36:16;100375.94;;;16.58;100.00
56198;BME280;42700;42.524;12.052;2023-05-01T04:38:42;100211.94;;;16.53;100.00
56198;BME280;42700;42.524;12.052;2023-05-01T04:41:08;100344.06;;;16.55;100.00
56198;BME280;42700;42.524;12.052;2023-05-01T04:43:34;100350.44;;;16.54;100.00
56198;BME280;42700;42.524;12.052;2023-05-01T04:45:59;100414.50;;;16.57;100.00
56198;BME280;42700;42.524;12.052;2023-05-01T04:48:25;99903.81;;;16.41;100.00
56198;BME280;42700;42.524;12.052;2023-05-01T04:50:50;99715.94;;;16.35;100.00
56198;BME280;42700;42.524;12.052;2023-05-01T04:53:16;99638.72;;;16.30;100.00
56198;BME280;42700;42.524;12.052;2023-05-01T04:55:41;100440.63;;;16.55;100.00
56198;BME280;42700;42.524;12.052;2023-05-01T04:58:07;100317.00;;;16.48;100.00
56198;BME280;42700;42.524;12.052;2023-05-01T05:00:33;100338.16;;;16.51;100.00
56198;BME280;42700;42.524;12.052;2023-05-01T05:02:58;100458.69;;;16.53;100.00
56198;BME280;42700;42.524;12.052;2023-05-01T05:05:24;100387.59;;;16.49;100.00
56198;BME280;42700;42.524;12.052;2023-05-01T05:07:49;100055.28;;;16.37;100.00
56198;BME280;42700;42.524;12.052;2023-05-01T05:10:15;100429.50;;;16.50;100.00
56198;BME280;42700;42.524;12.052;2023-05-01T05:12:40;99339.22;;;16.16;100.00
56198;BME280;42700;42.524;12.052;2023-05-01T05:15:06;100050.91;;;16.36;100.00
56198;BME280;42700;42.524;12.052;2023-05-01T05:17:32;100052.91;;;16.34;100.00
56198;BME280;42700;42.524;12.052;2023-05-01T05:19:57;100824.94;;;16.57;100.00
56198;BME280;42700;42.524;12.052;2023-05-01T05:22:23;101092.38;;;16.66;100.00
56198;BME280;42700;42.524;12.052;2023-05-01T05:24:53;101649.09;;;16.85;100.00
56198;BME280;42700;42.524;12.052;2023-05-01T05:27:20;101976.16;;;16.91;100.00
56198;BME280;42700;42.524;12.052;2023-05-01T05:29:45;101966.28;;;16.91;100.00
56198;BME280;42700;42.524;12.052;2023-05-01T05:32:11;102337.78;;;17.03;100.00
56198;BME280;42700;42.524;12.052;2023-05-01T05:34:36;102547.72;;;17.10;100.00
56198;BME280;42700;42.524;12.052;2023-05-01T05:37:03;103065.91;;;17.29;100.00
56198;BME280;42700;42.524;12.052;2023-05-01T05:39:31;103174.97;;;17.33;100.00
56198;BME280;42700;42.524;12.052;2023-05-01T05:41:57;102842.13;;;17.27;100.00
56198;BME280;42700;42.524;12.052;2023-05-01T05:44:23;102754.59;;;17.23;100.00
56198;BME280;42700;42.524;12.052;2023-05-01T05:46:48;102997.97;;;17.27;100.00
56198;BME280;42700;42.524;12.052;2023-05-01T05:49:14;103598.88;;;17.47;100.00
56198;BME280;42700;42.524;12.052;2023-05-01T05:51:39;103424.41;;;17.42;100.00
56198;BME280;42700;42.524;12.052;2023-05-01T05:54:05;103540.75;;;17.44;100.00
56198;BME280;42700;42.524;12.052;2023-05-01T05:56:30;103235.66;;;17.37;100.00
56198;BME280;42700;42.524;12.052;2023-05-01T05:58:56;103579.06;;;17.49;100.00
56198;BME280;42700;42.524;12.052;2023-05-01T06:01:22;103451.13;;;17.45;100.00
56198;BME280;42700;42.524;12.052;2023-05-01T06:03:48;103181.97;;;17.36;100.00
56198;BME280;42700;42.524;12.052;2023-05-01T06:06:13;103549.66;;;17.46;100.00
56198;BME280;42700;42.524;12.052;2023-05-01T06:08:39;103726.66;;;17.54;100.00
56198;BME280;42700;42.524;12.052;2023-05-01T06:11:04;102747.53;;;17.22;100.00
56198;BME280;42700;42.524;12.052;2023-05-01T06:13:31;103612.25;;;17.48;100.00
56198;BME280;42700;42.524;12.052;2023-05-01T06:15:57;104040.13;;;17.60;100.00
56198;BME280;42700;42.524;12.052;2023-05-01T07:22:47;106457.69;;;18.37;100.00
56198;BME280;42700;42.524;12.052;2023-05-01T07:25:12;106333.81;;;18.34;100.00
56198;BME280;42700;42.524;12.052;2023-05-01T07:27:38;107149.19;;;18.53;100.00
56198;BME280;42700;42.524;12.052;2023-05-01T07:30:04;107420.56;;;18.63;100.00
56198;BME280;42700;42.524;12.052;2023-05-01T07:32:30;108072.38;;;18.85;100.00
56198;BME280;42700;42.524;12.052;2023-05-01T07:34:57;107465.47;;;18.65;100.00
56198;BME280;42700;42.524;12.052;2023-05-01T07:37:22;107179.75;;;18.52;100.00
56198;BME280;42700;42.524;12.052;2023-05-01T07:39:48;107928.38;;;18.75;100.00
56198;BME280;42700;42.524;12.052;2023-05-01T07:42:13;109118.75;;;19.09;100.00
56198;BME280;42700;42.524;12.052;2023-05-01T07:44:39;109913.31;;;19.35;100.00
56198;BME280;42700;42.524;12.052;2023-05-01T07:47:05;110476.91;;;19.55;100.00
56198;BME280;42700;42.524;12.052;2023-05-01T07:49:37;110277.00;;;19.55;100.00
56198;BME280;42700;42.524;12.052;2023-05-01T07:52:03;109586.66;;;19.36;100.00
56198;BME280;42700;42.524;12.052;2023-05-01T07:54:32;111228.75;;;19.83;100.00
56198;BME280;42700;42.524;12.052;2023-05-01T07:56:57;112518.19;;;20.27;100.00
56198;BME280;42700;42.524;12.052;2023-05-01T07:59:26;112888.56;;;20.44;100.00
56198;BME280;42700;42.524;12.052;2023-05-01T08:01:52;113574.94;;;20.70;100.00
56198;BME280;42700;42.524;12.052;2023-05-01T08:04:18;114157.75;;;20.92;100.00
56198;BME280;42700;42.524;12.052;2023-05-01T08:06:46;113549.00;;;20.82;100.00
56198;BME280;42700;42.524;12.052;2023-05-01T08:09:12;113423.97;;;20.78;100.00
56198;BME280;42700;42.524;12.052;2023-05-01T08:11:37;113280.72;;;20.71;100.00
56198;BME280;42700;42.524;12.052;2023-05-01T08:14:03;113890.66;;;20.86;100.00
56198;BME280;42700;42.524;12.052;2023-05-01T08:16:28;114853.06;;;21.15;100.00
56198;BME280;42700;42.524;12.052;2023-05-01T08:18:54;112585.66;;;20.48;100.00
56198;BME280;42700;42.524;12.052;2023-05-01T08:21:20;114568.38;;;21.06;100.00
56198;BME280;42700;42.524;12.052;2023-05-01T08:23:45;115389.50;;;21.42;100.00
56198;BME280;42700;42.524;12.052;2023-05-01T08:26:11;114042.53;;;21.06;100.00
56198;BME280;42700;42.524;12.052;2023-05-01T08:28:36;113066.31;;;20.76;100.00
56198;BME280;42700;42.524;12.052;2023-05-01T08:31:02;114803.16;;;21.22;100.00
56198;BME280;42700;42.524;12.052;2023-05-01T08:33:27;115256.31;;;21.32;100.00
56198;BME280;42700;42.524;12.052;2023-05-01T08:35:53;115420.09;;;21.41;100.00
56198;BME280;42700;42.524;12.052;2023-05-01T08:38:19;115896.63;;;21.55;100.00
56198;BME280;42700;42.524;12.052;2023-05-01T08:40:50;115998.75;;;21.69;100.00
56198;BME280;42700;42.524;12.052;2023-05-01T08:43:16;116547.59;;;21.86;100.00
56198;BME280;42700;42.524;12.052;2023-05-01T08:45:42;115175.13;;;21.49;100.00
56198;BME280;42700;42.524;12.052;2023-05-01T08:48:08;116737.28;;;21.90;100.00
56198;BME280;42700;42.524;12.052;2023-05-01T08:50:35;115252.66;;;21.47;100.00
56198;BME280;42700;42.524;12.052;2023-05-01T08:53:03;115158.09;;;21.43;100.00
56198;BME280;42700;42.524;12.052;2023-05-01T08:55:29;116866.31;;;21.94;100.00
56198;BME280;42700;42.524;12.052;2023-05-01T08:57:56;115381.31;;;21.49;100.00
56198;BME280;42700;42.524;12.052;2023-05-01T09:00:22;116292.31;;;21.72;100.00
56198;BME280;42700;42.524;12.052;2023-05-01T09:02:49;116931.72;;;21.96;100.00
56198;BME280;42700;42.524;12.052;2023-05-01T09:05:15;115337.50;;;21.46;100.00
56198;BME280;42700;42.524;12.052;2023-05-01T09:07:41;115525.28;;;21.51;100.00
56198;BME280;42700;42.524;12.052;2023-05-01T09:10:07;114910.72;;;21.30;100.00
56198;BME280;42700;42.524;12.052;2023-05-01T09:12:33;116299.66;;;21.73;100.00
56198;BME280;42700;42.524;12.052;2023-05-01T09:15:00;116406.31;;;21.72;100.00
56198;BME280;42700;42.524;12.052;2023-05-01T09:17:26;115260.88;;;21.40;100.00
56198;BME280;42700;42.524;12.052;2023-05-01T09:19:53;117093.81;;;21.89;100.00
56198;BME280;42700;42.524;12.052;2023-05-01T09:22:18;117121.09;;;21.97;100.00
56198;BME280;42700;42.524;12.052;2023-05-01T09:24:44;118070.50;;;22.23;100.00
56198;BME280;42700;42.524;12.052;2023-05-01T09:27:11;119371.16;;;22.61;100.00
56198;BME280;42700;42.524;12.052;2023-05-01T09:29:41;118101.34;;;22.35;100.00
56198;BME280;42700;42.524;12.052;2023-05-01T09:32:13;119173.81;;;22.63;100.00
56198;BME280;42700;42.524;12.052;2023-05-01T09:34:40;116374.34;;;21.84;100.00
56198;BME280;42700;42.524;12.052;2023-05-01T09:37:06;115764.56;;;21.63;100.00
56198;BME280;42700;42.524;12.052;2023-05-01T09:39:31;116850.19;;;21.88;100.00
56198;BME280;42700;42.524;12.052;2023-05-01T09:41:57;116491.31;;;21.85;100.00
56198;BME280;42700;42.524;12.052;2023-05-01T09:44:22;117644.91;;;22.12;100.00
56198;BME280;42700;42.524;12.052;2023-05-01T09:46:48;117457.75;;;22.08;100.00
56198;BME280;42700;42.524;12.052;2023-05-01T09:49:14;116693.09;;;21.91;100.00
56198;BME280;42700;42.524;12.052;2023-05-01T09:51:40;117738.22;;;22.18;100.00
56198;BME280;42700;42.524;12.052;2023-05-01T09:54:17;115284.44;;;21.48;100.00
56198;BME280;42700;42.524;12.052;2023-05-01T09:56:45;115046.66;;;21.33;100.00
56198;BME280;42700;42.524;12.052;2023-05-01T09:59:15;114558.19;;;21.21;100.00
56198;BME280;42700;42.524;12.052;2023-05-01T10:01:42;115653.00;;;21.45;100.00
56198;BME280;42700;42.524;12.052;2023-05-01T10:04:08;115663.47;;;21.49;100.00
56198;BME280;42700;42.524;12.052;2023-05-01T10:06:34;116400.06;;;21.66;100.00
56198;BME280;42700;42.524;12.052;2023-05-01T10:09:01;116882.25;;;21.78;100.00
56198;BME280;42700;42.524;12.052;2023-05-01T10:11:26;118666.56;;;22.33;100.00
56198;BME280;42700;42.524;12.052;2023-05-01T10:14:05;118164.13;;;22.30;100.00
56198;BME280;42700;42.524;12.052;2023-05-01T10:16:32;116363.28;;;21.75;100.00
56198;BME280;42700;42.524;12.052;2023-05-01T10:18:58;117173.91;;;21.99;100.00
56198;BME280;42700;42.524;12.052;2023-05-01T10:21:24;119119.31;;;22.52;100.00
56198;BME280;42700;42.524;12.052;2023-05-01T10:23:50;118510.63;;;22.33;100.00
56198;BME280;42700;42.524;12.052;2023-05-01T10:26:16;119702.88;;;22.65;100.00
56198;BME280;42700;42.524;12.052;2023-05-01T10:28:45;120285.94;;;22.84;100.00
56198;BME280;42700;42.524;12.052;2023-05-01T10:31:11;122154.63;;;23.39;100.00
56198;BME280;42700;42.524;12.052;2023-05-01T10:33:37;119988.66;;;22.81;100.00
56198;BME280;42700;42.524;12.052;2023-05-01T10:36:03;121538.97;;;23.23;100.00
56198;BME280;42700;42.524;12.052;2023-05-01T10:38:32;118720.28;;;22.51;100.00
56198;BME280;42700;42.524;12.052;2023-05-01T10:40:59;119825.53;;;22.77;100.00
56198;BME280;42700;42.524;12.052;2023-05-01T10:45:53;117994.66;;;22.24;100.00
56198;BME280;42700;42.524;12.052;2023-05-01T10:53:38;121724.13;;;23.31;100.00
56198;BME280;42700;42.524;12.052;2023-05-01T10:56:04;122669.44;;;23.67;100.00
56198;BME280;42700;42.524;12.052;2023-05-01T10:59:15;120623.22;;;23.16;100.00
56198;BME280;42700;42.524;12.052;2023-05-01T11:01:34;120178.28;;;23.06;100.00
56198;BME280;42700;42.524;12.052;2023-05-01T11:04:01;124519.00;;;24.26;100.00
56198;BME280;42700;42.524;12.052;2023-05-01T11:06:28;121915.13;;;23.63;100.00
56198;BME280;42700;42.524;12.052;2023-05-01T11:08:54;119629.13;;;22.95;100.00
56198;BME280;42700;42.524;12.052;2023-05-01T11:13:57;120602.84;;;23.14;100.00
56198;BME280;42700;42.524;12.052;2023-05-01T11:19:07;117521.91;;;22.32;100.00
56198;BME280;42700;42.524;12.052;2023-05-01T11:21:34;121011.19;;;23.22;100.00
56198;BME280;42700;42.524;12.052;2023-05-01T11:24:00;120879.69;;;23.23;100.00
56198;BME280;42700;42.524;12.052;2023-05-01T11:26:26;120312.28;;;23.09;100.00
56198;BME280;42700;42.524;12.052;2023-05-01T11:28:53;122332.97;;;23.66;100.00
56198;BME280;42700;42.524;12.052;2023-05-01T11:31:19;121266.69;;;23.47;100.00
56198;BME280;42700;42.524;12.052;2023-05-01T11:33:44;119121.06;;;22.84;100.00
56198;BME280;42700;42.524;12.052;2023-05-01T11:36:10;120295.38;;;23.06;100.00
56198;BME280;42700;42.524;12.052;2023-05-01T11:38:35;122508.16;;;23.69;100.00
56198;BME280;42700;42.524;12.052;2023-05-01T11:41:02;119091.78;;;22.72;100.00
56198;BME280;42700;42.524;12.052;2023-05-01T11:43:30;119174.31;;;22.61;100.00
56198;BME280;42700;42.524;12.052;2023-05-01T11:45:56;120284.19;;;22.94;100.00
56198;BME280;42700;42.524;12.052;2023-05-01T11:48:29;120185.72;;;22.97;100.00
56198;BME280;42700;42.524;12.052;2023-05-01T11:50:54;121493.22;;;23.30;100.00
56198;BME280;42700;42.524;12.052;2023-05-01T11:53:20;118903.97;;;22.55;100.00
56198;BME280;42700;42.524;12.052;2023-05-01T11:55:45;122512.31;;;23.55;100.00
56198;BME280;42700;42.524;12.052;2023-05-01T11:58:11;120949.75;;;23.14;100.00
56198;BME280;42700;42.524;12.052;2023-05-01T12:00:37;122060.56;;;23.42;100.00
56198;BME280;42700;42.524;12.052;2023-05-01T12:03:07;122853.84;;;23.70;100.00
56198;BME280;42700;42.524;12.052;2023-05-01T12:05:34;116663.88;;;22.03;100.00
56198;BME280;42700;42.524;12.052;2023-05-01T12:08:17;118538.28;;;22.47;100.00
56198;BME280;42700;42.524;12.052;2023-05-01T12:10:43;119710.31;;;22.82;100.00
56198;BME280;42700;42.524;12.052;2023-05-01T12:13:09;121277.34;;;23.27;100.00
56198;BME280;42700;42.524;12.052;2023-05-01T12:15:37;119194.63;;;22.69;100.00
56198;BME280;42700;42.524;12.052;2023-05-01T12:18:04;122018.25;;;23.48;100.00
56198;BME280;42700;42.524;12.052;2023-05-01T12:20:49;122956.13;;;23.81;100.00
56198;BME280;42700;42.524;12.052;2023-05-01T12:23:16;122592.03;;;23.70;100.00
56198;BME280;42700;42.524;12.052;2023-05-01T12:25:42;122844.31;;;23.81;100.00
56198;BME280;42700;42.524;12.052;2023-05-01T12:28:12;122859.34;;;23.87;100.00
56198;BME280;42700;42.524;12.052;2023-05-01T12:30:38;120441.31;;;23.19;100.00
56198;BME280;42700;42.524;12.052;2023-05-01T12:33:11;120441.44;;;23.15;100.00
56198;BME280;42700;42.524;12.052;2023-05-01T12:35:38;120781.03;;;23.20;100.00
56198;BME280;42700;42.524;12.052;2023-05-01T12:40:39;118694.84;;;22.67;100.00
56198;BME280;42700;42.524;12.052;2023-05-01T12:43:05;119271.44;;;22.77;100.00
56198;BME280;42700;42.524;12.052;2023-05-01T12:45:37;121895.16;;;23.54;100.00
56198;BME280;42700;42.524;12.052;2023-05-01T12:48:08;120387.25;;;23.16;100.00
56198;BME280;42700;42.524;12.052;2023-05-01T12:50:36;121649.47;;;23.57;100.00
56198;BME280;42700;42.524;12.052;2023-05-01T12:53:02;121302.09;;;23.47;100.00
56198;BME280;42700;42.524;12.052;2023-05-01T12:55:28;118407.97;;;22.65;100.00
56198;BME280;42700;42.524;12.052;2023-05-01T12:57:53;120011.50;;;23.07;100.00
56198;BME280;42700;42.524;12.052;2023-05-01T13:00:19;119664.06;;;22.97;100.00
56198;BME280;42700;42.524;12.052;2023-05-01T13:02:45;120728.19;;;23.33;100.00
56198;BME280;42700;42.524;12.052;2023-05-01T13:05:10;120273.16;;;23.18;100.00
56198;BME280;42700;42.524;12.052;2023-05-01T13:07:36;117031.59;;;22.37;100.00
56198;BME280;42700;42.524;12.052;2023-05-01T13:10:04;120045.44;;;23.09;100.00
56198;BME280;42700;42.524;12.052;2023-05-01T13:12:30;121401.88;;;23.50;100.00
56198;BME280;42700;42.524;12.052;2023-05-01T13:14:56;119839.34;;;23.13;100.00
56198;BME280;42700;42.524;12.052;2023-05-01T13:17:22;122148.84;;;23.72;100.00
56198;BME280;42700;42.524;12.052;2023-05-01T13:19:53;117901.00;;;22.52;100.00
56198;BME280;42700;42.524;12.052;2023-05-01T13:22:29;118273.50;;;22.58;100.00
56198;BME280;42700;42.524;12.052;2023-05-01T13:24:55;121282.53;;;23.39;100.00
56198;BME280;42700;42.524;12.052;2023-05-01T13:27:21;122517.69;;;23.75;100.00
56198;BME280;42700;42.524;12.052;2023-05-01T13:29:54;120293.78;;;23.21;100.00
56198;BME280;42700;42.524;12.052;2023-05-01T13:32:22;121901.78;;;23.69;100.00
56198;BME280;42700;42.524;12.052;2023-05-01T13:34:48;122142.31;;;23.80;100.00
56198;BME280;42700;42.524;12.052;2023-05-01T13:37:14;116819.56;;;22.29;100.00
56198;BME280;42700;42.524;12.052;2023-05-01T13:39:40;115722.19;;;21.86;100.00
56198;BME280;42700;42.524;12.052;2023-05-01T13:42:05;119259.06;;;22.79;100.00
56198;BME280;42700;42.524;12.052;2023-05-01T13:44:32;121961.34;;;23.49;100.00
56198;BME280;42700;42.524;12.052;2023-05-01T13:47:10;122749.50;;;23.80;100.00
56198;BME280;42700;42.524;12.052;2023-05-01T13:49:40;121872.22;;;23.62;100.00
56198;BME280;42700;42.524;12.052;2023-05-01T13:52:05;118430.00;;;22.61;100.00
56198;BME280;42700;42.524;12.052;2023-05-01T13:54:31;120513.69;;;23.13;100.00
56198;BME280;42700;42.524;12.052;2023-05-01T13:56:59;119307.09;;;22.84;100.00